Time,TemperatureF,DewpointF,PressureIn,WindDirection,WindDirectionDegrees,WindSpeedMPH,WindSpeedGustMPH,Humidity,HourlyPrecipIn,Conditions,Clouds,dailyrainin,SoftwareType,DateUTC
2013-07-11 00:01:00,73.9,71.8,29.81,WNW,294,0.0,0.0,93,0.87,,,22.09,meteohub,2013-07-11 04:01:00,
2013-07-11 00:02:00,73.9,72.1,29.81,WNW,294,0.0,0.0,94,0.87,,,22.09,meteohub,2013-07-11 04:02:00,
2013-07-11 00:04:00,73.8,72.0,29.81,WNW,294,0.0,0.0,94,0.87,,,22.09,meteohub,2013-07-11 04:04:00,
2013-07-11 00:09:00,73.8,71.6,29.81,WNW,294,0.0,0.0,93,0.87,,,22.09,meteohub,2013-07-11 04:09:00,
2013-07-11 00:14:00,73.6,71.8,29.81,WNW,294,0.0,0.0,94,0.87,,,22.09,meteohub,2013-07-11 04:14:00,
2013-07-11 00:20:00,73.6,71.4,29.81,WNW,294,0.0,0.0,93,0.86,,,22.09,meteohub,2013-07-11 04:20:00,
2013-07-11 00:25:00,73.4,71.2,29.81,WNW,294,0.0,0.0,93,0.69,,,22.26,meteohub,2013-07-11 04:25:00,
2013-07-11 00:30:00,73.4,71.6,29.81,WNW,294,0.0,0.0,94,0.18,,,22.27,meteohub,2013-07-11 04:30:00,
2013-07-11 00:35:00,73.2,71.4,29.81,WNW,294,0.0,0.0,94,1.17,,,23.26,meteohub,2013-07-11 04:35:00,
2013-07-11 00:40:00,73.2,71.4,29.80,WNW,294,0.0,0.0,94,2.35,,,24.44,meteohub,2013-07-11 04:40:00,
2013-07-11 00:45:00,73.0,71.2,29.81,WNW,294,0.0,0.0,94,2.41,,,24.50,meteohub,2013-07-11 04:45:00,
2013-07-11 00:50:00,73.0,71.6,29.81,WNW,294,0.0,0.0,95,2.96,,,25.05,meteohub,2013-07-11 04:50:00,
2013-07-11 00:56:00,73.0,71.6,29.81,WNW,294,0.0,0.0,95,3.18,,,25.27,meteohub,2013-07-11 04:56:00,
2013-07-11 01:01:00,73.0,71.6,29.81,WNW,294,0.0,0.0,95,3.80,,,25.89,meteohub,2013-07-11 05:01:00,
2013-07-11 01:06:00,72.9,71.4,29.81,WNW,294,0.0,0.0,95,3.84,,,25.93,meteohub,2013-07-11 05:06:00,
2013-07-11 01:11:00,72.9,71.4,29.80,WNW,294,0.0,0.0,95,4.23,,,26.32,meteohub,2013-07-11 05:11:00,
2013-07-11 01:16:00,72.9,71.4,29.80,WNW,294,0.0,0.0,95,5.67,,,27.76,meteohub,2013-07-11 05:16:00,
2013-07-11 01:22:00,72.7,71.2,29.80,WNW,294,0.0,0.0,95,6.18,,,28.44,meteohub,2013-07-11 05:22:00,
2013-07-11 01:27:00,72.7,71.2,29.80,WNW,294,0.0,0.0,95,6.75,,,29.02,meteohub,2013-07-11 05:27:00,
2013-07-11 01:32:00,72.7,71.2,29.79,WNW,294,0.0,0.0,95,8.08,,,30.50,meteohub,2013-07-11 05:32:00,
2013-07-11 01:37:00,72.7,71.4,29.79,WNW,294,0.0,0.0,96,7.21,,,30.95,meteohub,2013-07-11 05:37:00,
2013-07-11 01:42:00,72.7,71.4,29.80,WNW,294,0.0,0.0,96,7.89,,,32.39,meteohub,2013-07-11 05:42:00,
2013-07-11 01:47:00,72.7,71.4,29.79,WNW,294,0.0,0.0,96,9.32,,,33.83,meteohub,2013-07-11 05:47:00,
2013-07-11 01:52:00,72.7,71.4,29.80,WNW,294,0.0,0.0,96,9.48,,,34.55,meteohub,2013-07-11 05:52:00,
2013-07-11 01:57:00,72.7,71.4,29.80,WNW,294,0.0,0.0,96,10.14,,,35.99,meteohub,2013-07-11 05:57:00,
2013-07-11 02:02:00,72.7,71.4,29.80,WNW,294,0.0,0.0,96,10.49,,,36.42,meteohub,2013-07-11 06:02:00,
2013-07-11 02:07:00,72.9,71.6,29.80,WNW,294,0.0,0.0,96,11.40,,,37.33,meteohub,2013-07-11 06:07:00,
2013-07-11 02:12:00,72.9,71.6,29.80,WNW,294,0.0,0.0,96,11.89,,,38.81,meteohub,2013-07-11 06:12:00,
2013-07-11 02:17:00,72.9,72.0,29.80,WNW,294,0.0,0.0,97,11.40,,,39.40,meteohub,2013-07-11 06:17:00,
2013-07-11 02:22:00,73.0,72.1,29.80,WNW,294,0.0,0.0,97,12.17,,,40.94,meteohub,2013-07-11 06:22:00,
2013-07-11 02:27:00,73.0,72.1,29.80,WNW,294,0.0,0.0,97,12.16,,,41.66,meteohub,2013-07-11 06:27:00,
2013-07-11 02:32:00,73.0,71.8,29.80,WNW,294,0.0,0.0,96,12.49,,,43.10,meteohub,2013-07-11 06:32:00,
2013-07-11 02:37:00,73.0,72.1,29.80,WNW,294,0.0,0.0,97,12.75,,,44.42,meteohub,2013-07-11 06:37:00,
2013-07-11 02:42:00,73.0,72.1,29.80,WNW,294,0.0,0.0,97,12.39,,,45.26,meteohub,2013-07-11 06:42:00,
2013-07-11 02:47:00,73.0,72.1,29.79,WNW,294,0.0,0.0,97,12.75,,,46.70,meteohub,2013-07-11 06:47:00,
2013-07-11 02:52:00,73.0,71.8,29.80,WNW,294,0.0,0.0,96,12.39,,,47.42,meteohub,2013-07-11 06:52:00,
2013-07-11 02:57:00,72.9,71.6,29.80,WNW,294,0.0,0.0,96,12.77,,,48.84,meteohub,2013-07-11 06:57:00,
2013-07-11 03:02:00,72.9,71.6,29.80,WNW,294,0.0,0.0,96,13.67,,,50.28,meteohub,2013-07-11 07:02:00,
2013-07-11 03:07:00,72.9,71.6,29.80,WNW,294,0.0,0.0,96,13.27,,,51.00,meteohub,2013-07-11 07:07:00,
2013-07-11 03:12:00,72.9,71.6,29.80,WNW,294,0.0,0.0,96,13.29,,,52.22,meteohub,2013-07-11 07:12:00,
2013-07-11 03:17:00,72.9,71.6,29.80,WNW,294,0.0,0.0,96,12.24,,,52.22,meteohub,2013-07-11 07:17:00,
2013-07-11 03:22:00,72.7,71.4,29.80,WNW,294,0.0,0.0,96,11.49,,,52.67,meteohub,2013-07-11 07:22:00,
2013-07-11 03:27:00,72.7,71.4,29.80,WNW,294,0.0,0.0,96,11.85,,,54.11,meteohub,2013-07-11 07:27:00,
2013-07-11 03:32:00,72.5,71.2,29.80,WNW,294,0.0,0.0,96,11.37,,,54.83,meteohub,2013-07-11 07:32:00,
2013-07-11 03:37:00,72.3,71.1,29.80,WNW,294,0.0,0.0,96,11.49,,,56.15,meteohub,2013-07-11 07:37:00,
2013-07-11 03:42:00,72.3,71.4,29.80,WNW,294,0.0,0.0,97,10.42,,,56.28,meteohub,2013-07-11 07:42:00,
2013-07-11 03:47:00,72.3,71.4,29.80,WNW,294,0.0,0.0,97,9.34,,,56.28,meteohub,2013-07-11 07:47:00,
2013-07-11 03:52:00,72.3,71.4,29.80,WNW,294,0.0,0.0,97,8.56,,,56.68,meteohub,2013-07-11 07:52:00,
2013-07-11 03:57:00,72.1,71.2,29.80,WNW,294,0.0,0.0,97,7.36,,,56.68,meteohub,2013-07-11 07:57:00,
2013-07-11 04:02:00,72.1,71.2,29.80,WNW,294,0.0,0.0,97,6.28,,,56.68,meteohub,2013-07-11 08:02:00,
2013-07-11 04:07:00,72.1,71.2,29.80,WNW,294,0.0,0.0,97,5.96,,,57.56,meteohub,2013-07-11 08:07:00,
2013-07-11 04:12:00,72.0,71.1,29.80,WNW,294,0.0,0.0,97,5.80,,,58.02,meteohub,2013-07-11 08:12:00,
2013-07-11 04:17:00,72.0,71.1,29.80,WNW,294,0.0,0.0,97,7.36,,,59.58,meteohub,2013-07-11 08:17:00,
2013-07-11 04:22:00,72.0,71.1,29.80,WNW,294,0.0,0.0,97,7.03,,,60.30,meteohub,2013-07-11 08:22:00,
2013-07-11 04:27:00,72.0,71.1,29.80,WNW,294,0.0,0.0,97,6.22,,,60.69,meteohub,2013-07-11 08:27:00,
2013-07-11 04:32:00,71.8,70.9,29.80,WNW,294,0.0,0.0,97,5.88,,,61.38,meteohub,2013-07-11 08:32:00,
2013-07-11 04:37:00,71.8,70.9,29.80,WNW,294,0.0,0.0,97,5.82,,,62.10,meteohub,2013-07-11 08:37:00,
2013-07-11 04:42:00,71.8,70.9,29.80,WNW,294,0.0,0.0,97,7.26,,,63.54,meteohub,2013-07-11 08:42:00,
2013-07-11 04:47:00,71.8,70.9,29.80,WNW,294,0.0,0.0,97,7.73,,,64.22,meteohub,2013-07-11 08:47:00,
2013-07-11 04:52:00,71.8,71.2,29.80,WNW,294,0.0,0.0,98,8.00,,,64.68,meteohub,2013-07-11 08:52:00,
2013-07-11 04:57:00,72.0,71.4,29.80,WNW,294,0.0,0.0,98,9.09,,,65.77,meteohub,2013-07-11 08:57:00,
2013-07-11 05:02:00,71.8,71.2,29.80,WNW,294,0.0,0.0,98,9.29,,,66.06,meteohub,2013-07-11 09:02:00,
2013-07-11 05:07:00,72.0,71.4,29.80,WNW,294,0.0,0.0,98,9.53,,,67.21,meteohub,2013-07-11 09:07:00,
2013-07-11 05:13:00,72.1,71.6,29.80,WNW,294,0.0,0.0,98,9.75,,,68.49,meteohub,2013-07-11 09:13:00,
2013-07-11 05:18:00,72.1,71.6,29.79,WNW,294,0.0,0.0,98,9.27,,,69.21,meteohub,2013-07-11 09:18:00,
2013-07-11 05:23:00,72.1,71.6,29.79,WNW,294,0.0,0.0,98,9.96,,,70.65,meteohub,2013-07-11 09:23:00,
2013-07-11 05:28:00,72.1,71.2,29.80,WNW,294,0.0,0.0,97,10.68,,,71.37,meteohub,2013-07-11 09:28:00,
2013-07-11 05:33:00,72.0,71.1,29.80,WNW,294,0.0,0.0,97,11.31,,,72.81,meteohub,2013-07-11 09:33:00,
2013-07-11 05:38:00,72.0,71.4,29.80,WNW,294,0.0,0.0,98,11.14,,,73.84,meteohub,2013-07-11 09:38:00,
2013-07-11 05:44:00,72.0,71.4,29.80,WNW,294,0.0,0.0,98,10.82,,,74.56,meteohub,2013-07-11 09:44:00,
2013-07-11 05:49:00,72.0,71.4,29.80,WNW,294,0.0,0.0,98,11.62,,,76.00,meteohub,2013-07-11 09:49:00,
2013-07-11 05:54:00,72.0,71.4,29.80,WNW,294,0.0,0.0,98,12.49,,,77.44,meteohub,2013-07-11 09:54:00,
2013-07-11 05:59:00,72.0,71.4,29.81,WNW,294,0.0,0.0,98,12.39,,,78.16,meteohub,2013-07-11 09:59:00,
2013-07-11 06:04:00,72.1,71.6,29.81,WNW,294,0.0,0.0,98,12.78,,,79.56,meteohub,2013-07-11 10:04:00,
2013-07-11 06:09:00,72.1,71.6,29.81,WNW,294,0.0,0.0,98,12.93,,,80.28,meteohub,2013-07-11 10:09:00,
2013-07-11 06:15:00,72.1,71.6,29.81,WNW,294,0.0,0.0,98,12.99,,,81.60,meteohub,2013-07-11 10:15:00,
2013-07-11 06:20:00,72.1,71.6,29.82,WNW,294,0.0,0.0,98,12.87,,,83.76,meteohub,2013-07-11 10:20:00,
2013-07-11 06:25:00,72.3,71.8,29.82,WNW,294,0.0,0.0,98,13.23,,,85.20,meteohub,2013-07-11 10:25:00,
2013-07-11 06:30:00,72.3,71.8,29.82,WNW,294,0.0,0.0,98,12.68,,,85.92,meteohub,2013-07-11 10:30:00,
2013-07-11 06:35:00,72.5,72.0,29.82,WNW,294,0.0,0.0,98,13.40,,,87.36,meteohub,2013-07-11 10:35:00,
2013-07-11 06:40:00,72.7,72.1,29.83,WNW,294,0.0,0.0,98,13.64,,,88.80,meteohub,2013-07-11 10:40:00,
2013-07-11 06:46:00,72.7,72.1,29.83,WNW,294,0.0,0.0,98,13.28,,,89.64,meteohub,2013-07-11 10:46:00,
2013-07-11 06:51:00,72.7,72.1,29.82,WNW,294,0.0,0.0,98,13.38,,,90.82,meteohub,2013-07-11 10:51:00,
2013-07-11 06:56:00,72.9,72.3,29.82,WNW,294,0.0,0.0,98,12.60,,,91.24,meteohub,2013-07-11 10:56:00,
2013-07-11 07:01:00,72.9,72.3,29.82,WNW,294,0.0,0.0,98,12.74,,,92.42,meteohub,2013-07-11 11:01:00,
2013-07-11 07:06:00,72.9,72.3,29.83,WNW,294,0.0,0.0,98,12.71,,,93.59,meteohub,2013-07-11 11:06:00,
2013-07-11 07:11:00,73.0,72.5,29.83,WNW,294,0.0,0.0,98,11.63,,,93.59,meteohub,2013-07-11 11:11:00,
2013-07-11 07:17:00,73.2,72.7,29.83,WNW,294,0.0,0.0,98,10.52,,,93.80,meteohub,2013-07-11 11:17:00,
2013-07-11 07:22:00,73.4,72.9,29.83,WNW,294,0.0,0.0,98,9.44,,,93.80,meteohub,2013-07-11 11:22:00,
2013-07-11 07:27:00,73.6,73.0,29.83,WNW,294,0.0,0.0,98,8.36,,,93.80,meteohub,2013-07-11 11:27:00,
2013-07-11 07:32:00,73.8,73.2,29.83,WNW,294,0.0,0.0,98,7.16,,,93.80,meteohub,2013-07-11 11:32:00,
2013-07-11 07:37:00,73.8,73.2,29.83,WNW,294,0.0,0.0,98,5.98,,,93.82,meteohub,2013-07-11 11:37:00,
2013-07-11 07:42:00,73.9,73.4,29.83,WNW,294,0.0,0.0,98,5.68,,,94.72,meteohub,2013-07-11 11:42:00,
2013-07-11 07:47:00,73.9,73.4,29.83,WNW,294,0.0,0.0,98,5.20,,,95.44,meteohub,2013-07-11 11:47:00,
2013-07-11 07:52:00,74.1,73.6,29.83,WNW,294,0.0,0.0,98,6.02,,,97.00,meteohub,2013-07-11 11:52:00,
2013-07-11 07:57:00,74.1,73.2,29.83,WNW,294,0.0,0.0,97,6.13,,,97.71,meteohub,2013-07-11 11:57:00,
2013-07-11 08:02:00,74.1,73.2,29.84,WNW,294,0.0,0.0,97,4.81,,,97.71,meteohub,2013-07-11 12:02:00,
2013-07-11 08:07:00,74.3,73.4,29.85,WNW,294,0.0,0.0,97,5.44,,,99.03,meteohub,2013-07-11 12:07:00,
2013-07-11 08:12:00,74.1,72.9,29.87,WNW,294,0.0,0.0,96,5.57,,,99.30,meteohub,2013-07-11 12:12:00,
2013-07-11 08:17:00,73.8,72.9,29.87,WNW,294,0.0,0.0,97,6.58,,,99.99,meteohub,2013-07-11 12:17:00,
2013-07-11 08:22:00,73.4,72.5,29.84,WNW,294,0.0,0.0,97,7.77,,,99.99,meteohub,2013-07-11 12:22:00,
2013-07-11 08:27:00,72.9,71.6,29.84,WNW,294,0.0,0.0,96,8.49,,,99.99,meteohub,2013-07-11 12:27:00,
2013-07-11 08:32:00,72.3,71.4,29.83,WNW,294,0.0,0.0,97,9.93,,,99.99,meteohub,2013-07-11 12:32:00,
2013-07-11 08:37:00,72.1,71.2,29.83,WNW,294,0.0,0.0,97,11.27,,,99.99,meteohub,2013-07-11 12:37:00,
2013-07-11 08:42:00,72.1,71.2,29.83,WNW,294,0.0,0.0,97,10.81,,,99.99,meteohub,2013-07-11 12:42:00,
2013-07-11 08:47:00,72.0,71.4,29.83,WNW,294,0.0,0.0,98,11.05,,,99.99,meteohub,2013-07-11 12:47:00,
2013-07-11 08:52:00,72.1,71.6,29.83,WNW,294,0.0,0.0,98,10.94,,,99.99,meteohub,2013-07-11 12:52:00,
2013-07-11 08:57:00,72.3,72.0,29.83,WNW,294,0.0,0.0,99,10.32,,,99.99,meteohub,2013-07-11 12:57:00,
2013-07-11 09:02:00,72.9,72.5,29.83,WNW,294,0.0,0.0,99,9.85,,,99.99,meteohub,2013-07-11 13:02:00,
2013-07-11 09:07:00,73.0,72.7,29.84,WNW,294,0.0,0.0,99,8.78,,,99.99,meteohub,2013-07-11 13:07:00,
2013-07-11 09:12:00,73.8,73.4,29.83,WNW,294,0.0,0.0,99,8.38,,,99.99,meteohub,2013-07-11 13:12:00,
2013-07-11 09:17:00,73.9,73.6,29.84,WNW,294,0.0,0.0,99,7.18,,,99.99,meteohub,2013-07-11 13:17:00,
2013-07-11 09:22:00,73.8,73.4,29.84,WNW,294,0.0,0.0,99,6.35,,,99.99,meteohub,2013-07-11 13:22:00,
2013-07-11 09:27:00,73.6,73.0,29.84,WNW,294,0.0,0.0,98,5.03,,,99.99,meteohub,2013-07-11 13:27:00,
2013-07-11 09:32:00,73.6,73.0,29.84,WNW,294,0.0,0.0,98,3.95,,,99.99,meteohub,2013-07-11 13:32:00,
2013-07-11 09:37:00,73.4,72.9,29.84,WNW,294,0.0,0.0,98,2.75,,,99.99,meteohub,2013-07-11 13:37:00,
2013-07-11 09:42:00,73.6,73.0,29.84,WNW,294,0.0,0.0,98,1.55,,,99.99,meteohub,2013-07-11 13:42:00,
2013-07-11 09:47:00,73.9,73.6,29.84,WNW,294,0.0,0.0,99,0.47,,,99.99,meteohub,2013-07-11 13:47:00,
2013-07-11 09:52:00,74.1,73.8,29.84,WNW,294,0.0,0.0,99,0.01,,,99.99,meteohub,2013-07-11 13:52:00,
2013-07-11 09:57:00,74.1,73.8,29.84,WNW,294,0.0,0.0,99,0.00,,,99.99,meteohub,2013-07-11 13:57:00,
2013-07-11 10:02:00,73.9,73.4,29.84,WNW,294,0.0,0.0,98,0.00,,,99.99,meteohub,2013-07-11 14:02:00,
2013-07-11 10:08:00,74.1,73.6,29.84,WNW,294,0.0,0.0,98,0.00,,,99.99,meteohub,2013-07-11 14:08:00,
2013-07-11 10:13:00,74.1,73.6,29.84,WNW,294,0.0,0.0,98,0.00,,,99.99,meteohub,2013-07-11 14:13:00,
2013-07-11 10:18:00,74.5,73.9,29.84,WNW,294,0.0,0.0,98,0.00,,,99.99,meteohub,2013-07-11 14:18:00,
2013-07-11 10:23:00,74.7,73.8,29.84,WNW,294,0.0,0.0,97,0.00,,,99.99,meteohub,2013-07-11 14:23:00,
2013-07-11 10:29:00,74.7,73.8,29.84,WNW,294,0.0,0.0,97,0.00,,,99.99,meteohub,2013-07-11 14:29:00,
2013-07-11 10:34:00,75.2,74.7,29.84,WNW,294,0.0,0.0,98,0.00,,,99.99,meteohub,2013-07-11 14:34:00,
2013-07-11 10:39:00,75.6,75.0,29.84,WNW,294,0.0,0.0,98,0.00,,,99.99,meteohub,2013-07-11 14:39:00,
2013-07-11 10:45:00,76.3,75.7,29.84,WNW,294,0.0,0.0,98,0.00,,,99.99,meteohub,2013-07-11 14:45:00,
2013-07-11 10:50:00,76.5,75.9,29.84,WNW,294,0.0,0.0,98,0.00,,,99.99,meteohub,2013-07-11 14:50:00,
2013-07-11 10:55:00,76.3,75.4,29.85,WNW,294,0.0,0.0,97,0.00,,,99.99,meteohub,2013-07-11 14:55:00,
2013-07-11 11:01:00,76.1,75.2,29.85,WNW,294,0.0,0.0,97,0.00,,,99.99,meteohub,2013-07-11 15:01:00,
2013-07-11 11:06:00,75.7,74.1,29.85,WNW,294,0.0,0.0,95,0.00,,,99.99,meteohub,2013-07-11 15:06:00,
2013-07-11 11:12:00,75.6,73.9,29.85,WNW,294,0.0,0.0,95,0.00,,,99.99,meteohub,2013-07-11 15:12:00,
2013-07-11 11:17:00,75.6,73.9,29.85,WNW,294,0.0,0.0,95,0.00,,,99.99,meteohub,2013-07-11 15:17:00,
2013-07-11 11:22:00,75.4,73.8,29.85,WNW,294,0.0,0.0,95,0.00,,,99.99,meteohub,2013-07-11 15:22:00,
2013-07-11 11:27:00,75.4,73.8,29.85,WNW,294,0.0,0.0,95,0.00,,,99.99,meteohub,2013-07-11 15:27:00,
2013-07-11 11:32:00,75.6,74.3,29.85,WNW,294,0.0,0.0,96,0.00,,,99.99,meteohub,2013-07-11 15:32:00,
2013-07-11 11:37:00,75.4,73.8,29.85,WNW,294,0.0,0.0,95,0.00,,,99.99,meteohub,2013-07-11 15:37:00,
2013-07-11 11:43:00,75.0,73.4,29.85,WNW,294,0.0,0.0,95,0.00,,,99.99,meteohub,2013-07-11 15:43:00,
2013-07-11 11:48:00,75.2,73.9,29.84,WNW,294,0.0,0.0,96,0.00,,,99.99,meteohub,2013-07-11 15:48:00,
2013-07-11 11:53:00,75.4,74.1,29.84,WNW,294,0.0,0.0,96,0.00,,,99.99,meteohub,2013-07-11 15:53:00,
2013-07-11 11:58:00,75.7,74.8,29.84,WNW,294,0.0,0.0,97,0.00,,,99.99,meteohub,2013-07-11 15:58:00,
2013-07-11 12:03:00,75.7,74.5,29.84,WNW,294,0.0,0.0,96,0.00,,,99.99,meteohub,2013-07-11 16:03:00,
2013-07-11 12:08:00,75.9,74.7,29.85,WNW,294,0.0,0.0,96,0.00,,,99.99,meteohub,2013-07-11 16:08:00,
2013-07-11 12:13:00,76.3,74.7,29.84,WNW,294,0.0,0.0,95,0.00,,,99.99,meteohub,2013-07-11 16:13:00,
2013-07-11 12:18:00,76.5,75.2,29.85,WNW,294,0.0,0.0,96,0.00,,,99.99,meteohub,2013-07-11 16:18:00,
2013-07-11 12:24:00,76.6,74.8,29.85,WNW,294,0.0,0.0,94,0.00,,,99.99,meteohub,2013-07-11 16:24:00,
2013-07-11 12:29:00,76.8,75.0,29.85,WNW,294,0.0,0.0,94,0.00,,,99.99,meteohub,2013-07-11 16:29:00,
2013-07-11 12:35:00,77.2,75.4,29.84,WNW,294,0.0,0.0,94,0.00,,,99.99,meteohub,2013-07-11 16:35:00,
2013-07-11 12:40:00,77.2,75.0,29.84,WNW,294,0.0,0.0,93,0.00,,,99.99,meteohub,2013-07-11 16:40:00,
2013-07-11 12:45:00,77.2,75.0,29.84,WNW,294,0.0,0.0,93,0.00,,,99.99,meteohub,2013-07-11 16:45:00,
2013-07-11 12:50:00,77.4,75.2,29.84,WNW,294,0.0,0.0,93,0.00,,,99.99,meteohub,2013-07-11 16:50:00,
2013-07-11 12:55:00,77.5,75.7,29.84,WNW,294,0.0,0.0,94,0.00,,,99.99,meteohub,2013-07-11 16:55:00,
2013-07-11 13:00:00,77.5,75.0,29.84,WNW,294,0.0,0.0,92,0.00,,,99.99,meteohub,2013-07-11 17:00:00,
2013-07-11 13:05:00,77.5,75.0,29.84,WNW,294,0.0,0.0,92,0.00,,,99.99,meteohub,2013-07-11 17:05:00,
2013-07-11 13:11:00,77.7,75.2,29.84,WNW,294,0.0,0.0,92,0.00,,,99.99,meteohub,2013-07-11 17:11:00,
2013-07-11 13:16:00,77.7,75.2,29.84,WNW,294,0.0,0.0,92,0.00,,,99.99,meteohub,2013-07-11 17:16:00,
2013-07-11 13:21:00,77.9,75.4,29.84,WNW,294,0.0,0.0,92,0.00,,,99.99,meteohub,2013-07-11 17:21:00,
2013-07-11 13:26:00,78.1,75.6,29.84,WNW,294,0.0,0.0,92,0.00,,,99.99,meteohub,2013-07-11 17:26:00,
2013-07-11 13:31:00,78.3,75.7,29.84,WNW,294,0.0,0.0,92,0.00,,,99.99,meteohub,2013-07-11 17:31:00,
2013-07-11 13:37:00,78.4,75.2,29.84,WNW,294,0.0,0.0,90,0.00,,,99.99,meteohub,2013-07-11 17:37:00,
2013-07-11 13:43:00,78.6,75.7,29.84,WNW,294,0.0,0.0,91,0.00,,,99.99,meteohub,2013-07-11 17:43:00,
2013-07-11 13:48:00,79.0,76.8,29.84,WNW,294,0.0,0.0,93,0.00,,,99.99,meteohub,2013-07-11 17:48:00,
2013-07-11 13:53:00,79.0,76.8,29.84,WNW,294,0.0,0.0,93,0.00,,,99.99,meteohub,2013-07-11 17:53:00,
2013-07-11 13:58:00,79.2,76.3,29.84,WNW,294,0.0,0.0,91,0.00,,,99.99,meteohub,2013-07-11 17:58:00,
2013-07-11 14:04:00,79.0,75.7,29.84,WNW,294,0.0,0.0,90,0.00,,,99.99,meteohub,2013-07-11 18:04:00,
2013-07-11 14:09:00,79.0,76.1,29.84,WNW,294,0.0,0.0,91,0.00,,,99.99,meteohub,2013-07-11 18:09:00,
2013-07-11 14:14:00,79.2,76.3,29.84,WNW,294,0.0,0.0,91,0.00,,,99.99,meteohub,2013-07-11 18:14:00,
2013-07-11 14:19:00,79.0,75.7,29.84,WNW,294,0.0,0.0,90,0.00,,,99.99,meteohub,2013-07-11 18:19:00,
2013-07-11 14:25:00,79.2,76.3,29.84,WNW,294,0.0,0.0,91,0.00,,,99.99,meteohub,2013-07-11 18:25:00,
2013-07-11 14:30:00,79.3,76.1,29.84,WNW,294,0.0,0.0,90,0.00,,,99.99,meteohub,2013-07-11 18:30:00,
2013-07-11 14:35:00,79.5,76.6,29.84,WNW,294,0.0,0.0,91,0.00,,,99.99,meteohub,2013-07-11 18:35:00,
2013-07-11 14:41:00,79.7,76.8,29.83,WNW,294,0.0,0.0,91,0.00,,,99.99,meteohub,2013-07-11 18:41:00,
2013-07-11 14:46:00,79.9,76.3,29.83,WNW,294,0.0,0.0,89,0.00,,,99.99,meteohub,2013-07-11 18:46:00,
2013-07-11 14:51:00,79.9,75.7,29.84,WNW,294,0.0,0.0,87,0.00,,,99.99,meteohub,2013-07-11 18:51:00,
2013-07-11 14:56:00,80.1,76.1,29.84,WNW,294,0.0,0.0,88,0.00,,,99.99,meteohub,2013-07-11 18:56:00,
2013-07-11 15:01:00,80.1,76.1,29.84,WNW,294,0.0,0.0,88,0.00,,,99.99,meteohub,2013-07-11 19:01:00,
2013-07-11 15:06:00,80.2,77.0,29.83,WNW,294,0.0,0.0,90,0.00,,,99.99,meteohub,2013-07-11 19:06:00,
2013-07-11 15:11:00,79.9,75.4,29.83,WNW,294,0.0,0.0,86,0.00,,,99.99,meteohub,2013-07-11 19:11:00,
2013-07-11 15:16:00,79.9,76.3,29.83,WNW,294,0.0,0.0,89,0.00,,,99.99,meteohub,2013-07-11 19:16:00,
2013-07-11 15:21:00,79.9,75.7,29.83,WNW,294,0.0,0.0,87,0.00,,,99.99,meteohub,2013-07-11 19:21:00,
2013-07-11 15:27:00,79.5,75.4,29.83,WNW,294,0.0,0.0,87,0.00,,,99.99,meteohub,2013-07-11 19:27:00,
2013-07-11 15:32:00,79.5,75.4,29.83,WNW,294,0.0,0.0,87,0.00,,,99.99,meteohub,2013-07-11 19:32:00,
2013-07-11 15:37:00,79.7,75.7,29.83,WNW,294,0.0,0.0,88,0.00,,,99.99,meteohub,2013-07-11 19:37:00,
2013-07-11 15:42:00,79.9,76.6,29.83,WNW,294,0.0,0.0,90,0.00,,,99.99,meteohub,2013-07-11 19:42:00,
2013-07-11 15:47:00,79.7,76.1,29.83,WNW,294,0.0,0.0,89,0.00,,,99.99,meteohub,2013-07-11 19:47:00,
2013-07-11 15:52:00,79.5,75.9,29.83,WNW,294,0.0,0.0,89,0.00,,,99.99,meteohub,2013-07-11 19:52:00,
2013-07-11 15:57:00,79.5,75.4,29.83,WNW,294,0.0,0.0,87,0.00,,,99.99,meteohub,2013-07-11 19:57:00,
2013-07-11 16:02:00,79.9,76.3,29.83,WNW,294,0.0,0.0,89,0.00,,,99.99,meteohub,2013-07-11 20:02:00,
2013-07-11 16:07:00,79.9,75.9,29.84,WNW,294,0.0,0.0,88,0.00,,,99.99,meteohub,2013-07-11 20:07:00,
2013-07-11 16:12:00,80.1,76.5,29.84,WNW,294,0.0,0.0,89,0.00,,,99.99,meteohub,2013-07-11 20:12:00,
2013-07-11 16:17:00,80.8,77.5,29.84,WNW,294,0.0,0.0,90,0.10,,,99.99,meteohub,2013-07-11 20:17:00,
2013-07-11 16:22:00,81.0,76.5,29.84,WNW,294,0.0,0.0,86,0.10,,,99.99,meteohub,2013-07-11 20:22:00,
2013-07-11 16:27:00,81.0,76.5,29.84,WNW,294,0.0,0.0,86,0.10,,,99.99,meteohub,2013-07-11 20:27:00,
2013-07-11 16:33:00,81.0,76.1,29.84,WNW,294,0.0,0.0,85,0.10,,,99.99,meteohub,2013-07-11 20:33:00,
2013-07-11 16:38:00,81.0,76.6,29.84,WNW,294,0.0,0.0,87,0.10,,,99.99,meteohub,2013-07-11 20:38:00,
2013-07-11 16:43:00,81.0,76.5,29.84,WNW,294,0.0,0.0,86,0.10,,,99.99,meteohub,2013-07-11 20:43:00,
2013-07-11 16:48:00,81.1,77.2,29.84,WNW,294,0.0,0.0,88,0.10,,,99.99,meteohub,2013-07-11 20:48:00,
2013-07-11 16:53:00,81.1,76.5,29.84,WNW,294,0.0,0.0,86,0.10,,,99.99,meteohub,2013-07-11 20:53:00,
2013-07-11 16:58:00,81.1,76.8,29.84,WNW,294,0.0,0.0,87,0.11,,,99.99,meteohub,2013-07-11 20:58:00,
2013-07-11 17:03:00,81.1,76.3,29.83,WNW,294,0.0,0.0,85,0.12,,,99.99,meteohub,2013-07-11 21:03:00,
2013-07-11 17:09:00,81.1,76.8,29.83,WNW,294,0.0,0.0,87,0.12,,,99.99,meteohub,2013-07-11 21:09:00,
2013-07-11 17:14:00,81.0,76.1,29.84,WNW,294,0.0,0.0,85,0.03,,,99.99,meteohub,2013-07-11 21:14:00,
2013-07-11 17:19:00,80.8,76.3,29.84,WNW,294,0.0,0.0,86,0.02,,,99.99,meteohub,2013-07-11 21:19:00,
2013-07-11 17:25:00,80.6,75.7,29.84,WNW,294,0.0,0.0,85,0.02,,,99.99,meteohub,2013-07-11 21:25:00,
2013-07-11 17:30:00,80.1,75.2,29.84,WNW,294,0.0,0.0,85,0.02,,,99.99,meteohub,2013-07-11 21:30:00,
2013-07-11 17:35:00,80.1,75.6,29.84,WNW,294,0.0,0.0,86,0.02,,,99.99,meteohub,2013-07-11 21:35:00,
2013-07-11 17:40:00,79.9,75.9,29.84,WNW,294,0.0,0.0,88,0.15,,,99.99,meteohub,2013-07-11 21:40:00,
2013-07-11 17:45:00,79.5,75.6,29.84,WNW,294,0.0,0.0,88,1.22,,,99.99,meteohub,2013-07-11 21:45:00,
2013-07-11 17:51:00,79.3,75.7,29.84,WNW,294,0.0,0.0,89,2.06,,,99.99,meteohub,2013-07-11 21:51:00,
2013-07-11 17:56:00,79.0,75.7,29.84,WNW,294,0.0,0.0,90,3.49,,,99.99,meteohub,2013-07-11 21:56:00,
2013-07-11 18:01:00,78.8,75.9,29.84,WNW,294,0.0,0.0,91,4.20,,,99.99,meteohub,2013-07-11 22:01:00,
2013-07-11 18:07:00,78.6,76.1,29.85,WNW,294,0.0,0.0,92,5.64,,,99.99,meteohub,2013-07-11 22:07:00,
2013-07-11 18:12:00,78.6,75.7,29.85,WNW,294,0.0,0.0,91,7.08,,,99.99,meteohub,2013-07-11 22:12:00,
2013-07-11 18:18:00,78.4,75.6,29.85,WNW,294,0.0,0.0,91,7.80,,,99.99,meteohub,2013-07-11 22:18:00,
2013-07-11 18:23:00,78.4,75.6,29.85,WNW,294,0.0,0.0,91,9.24,,,99.99,meteohub,2013-07-11 22:23:00,
2013-07-11 18:28:00,78.4,75.6,29.85,WNW,294,0.0,0.0,91,10.58,,,99.99,meteohub,2013-07-11 22:28:00,
2013-07-11 18:34:00,78.4,75.9,29.85,WNW,294,0.0,0.0,92,11.30,,,99.99,meteohub,2013-07-11 22:34:00,
2013-07-11 18:39:00,78.4,75.6,29.86,WNW,294,0.0,0.0,91,12.68,,,99.99,meteohub,2013-07-11 22:39:00,
2013-07-11 18:44:00,78.4,75.6,29.86,WNW,294,0.0,0.0,91,13.30,,,99.99,meteohub,2013-07-11 22:44:00,
2013-07-11 18:49:00,78.4,75.6,29.85,WNW,294,0.0,0.0,91,12.22,,,99.99,meteohub,2013-07-11 22:49:00,
2013-07-11 18:54:00,78.4,75.2,29.86,WNW,294,0.0,0.0,90,11.44,,,99.99,meteohub,2013-07-11 22:54:00,
2013-07-11 18:59:00,78.3,75.0,29.86,WNW,294,0.0,0.0,90,10.27,,,99.99,meteohub,2013-07-11 22:59:00,
2013-07-11 19:04:00,78.1,74.5,29.86,WNW,294,0.0,0.0,89,9.72,,,99.99,meteohub,2013-07-11 23:04:00,
2013-07-11 19:09:00,78.1,74.8,29.86,WNW,294,0.0,0.0,90,8.52,,,99.99,meteohub,2013-07-11 23:09:00,
2013-07-11 19:14:00,78.1,75.2,29.86,WNW,294,0.0,0.0,91,7.44,,,99.99,meteohub,2013-07-11 23:14:00,
2013-07-11 19:19:00,78.1,75.2,29.86,WNW,294,0.0,0.0,91,6.24,,,99.99,meteohub,2013-07-11 23:19:00,
2013-07-11 19:24:00,77.7,74.5,29.87,WNW,294,0.0,0.0,90,5.14,,,99.99,meteohub,2013-07-11 23:24:00,
2013-07-11 19:30:00,77.5,74.3,29.87,WNW,294,0.0,0.0,90,3.94,,,99.99,meteohub,2013-07-11 23:30:00,
2013-07-11 19:35:00,77.2,74.3,29.87,WNW,294,0.0,0.0,91,1.69,,,99.99,meteohub,2013-07-11 23:35:00,
2013-07-11 19:40:00,77.2,74.3,29.87,WNW,294,0.0,0.0,91,1.69,,,99.99,meteohub,2013-07-11 23:40:00,
2013-07-11 19:45:00,76.8,73.9,29.87,WNW,294,0.0,0.0,91,0.98,,,99.99,meteohub,2013-07-11 23:45:00,
2013-07-11 19:50:00,76.6,74.1,29.87,WNW,294,0.0,0.0,92,0.68,,,99.99,meteohub,2013-07-11 23:50:00,
2013-07-11 19:55:00,76.3,73.8,29.87,WNW,294,0.0,0.0,92,0.16,,,99.99,meteohub,2013-07-11 23:55:00,
2013-07-11 20:00:00,76.1,73.6,29.88,WNW,294,0.0,0.0,92,0.00,,,99.99,meteohub,2013-07-12 00:00:00,
2013-07-11 20:05:00,75.7,73.6,29.88,WNW,294,0.0,0.0,93,0.00,,,0.00,meteohub,2013-07-12 00:05:00,
2013-07-11 20:10:00,75.7,73.6,29.87,WNW,294,0.0,0.0,93,0.00,,,0.00,meteohub,2013-07-12 00:10:00,
2013-07-11 20:15:00,75.6,73.4,29.88,WNW,294,0.0,0.0,93,0.00,,,0.00,meteohub,2013-07-12 00:15:00,
2013-07-11 20:21:00,75.2,73.0,29.88,WNW,294,0.0,0.0,93,0.00,,,0.00,meteohub,2013-07-12 00:21:00,
2013-07-11 20:26:00,74.8,72.7,29.89,WNW,294,0.0,0.0,93,0.00,,,0.00,meteohub,2013-07-12 00:26:00,
2013-07-11 20:31:00,74.7,72.1,29.88,WNW,294,0.0,0.0,92,0.00,,,0.00,meteohub,2013-07-12 00:31:00,
2013-07-11 20:36:00,74.5,71.6,29.88,WNW,294,0.0,0.0,91,0.00,,,0.00,meteohub,2013-07-12 00:36:00,
2013-07-11 20:41:00,74.5,70.3,29.89,WNW,294,0.0,0.0,87,0.00,,,0.00,meteohub,2013-07-12 00:41:00,
2013-07-11 20:47:00,74.3,69.4,29.89,WNW,294,0.0,0.0,85,0.00,,,0.00,meteohub,2013-07-12 00:47:00,
2013-07-11 20:52:00,74.1,69.3,29.89,WNW,294,0.0,0.0,85,0.00,,,0.00,meteohub,2013-07-12 00:52:00,
2013-07-11 20:57:00,74.1,69.6,29.89,WNW,294,0.0,0.0,86,0.00,,,0.00,meteohub,2013-07-12 00:57:00,
2013-07-11 21:02:00,73.9,69.8,29.89,WNW,294,0.0,0.0,87,0.00,,,0.00,meteohub,2013-07-12 01:02:00,
2013-07-11 21:07:00,73.8,70.0,29.89,WNW,294,0.0,0.0,88,0.00,,,0.00,meteohub,2013-07-12 01:07:00,
2013-07-11 21:13:00,73.6,69.8,29.89,WNW,294,0.0,0.0,88,0.00,,,0.00,meteohub,2013-07-12 01:13:00,
2013-07-11 21:18:00,73.0,69.6,29.90,WNW,294,0.0,0.0,89,0.00,,,0.00,meteohub,2013-07-12 01:18:00,
2013-07-11 21:23:00,72.9,69.8,29.89,WNW,294,0.0,0.0,90,1.32,,,1.32,meteohub,2013-07-12 01:23:00,
2013-07-11 21:28:00,72.3,69.3,29.90,WNW,294,0.0,0.0,90,2.76,,,2.76,meteohub,2013-07-12 01:28:00,
2013-07-11 21:33:00,72.1,69.1,29.90,WNW,294,0.0,0.0,90,3.60,,,3.60,meteohub,2013-07-12 01:33:00,
2013-07-11 21:38:00,71.8,68.7,29.90,WNW,294,0.0,0.0,90,4.20,,,4.20,meteohub,2013-07-12 01:38:00,
2013-07-11 21:43:00,71.8,69.1,29.90,WNW,294,0.0,0.0,91,6.40,,,6.40,meteohub,2013-07-12 01:43:00,
2013-07-11 21:49:00,71.8,69.3,29.90,WNW,294,0.0,0.0,92,7.12,,,7.12,meteohub,2013-07-12 01:49:00,
2013-07-11 21:54:00,71.6,69.1,29.90,WNW,294,0.0,0.0,92,8.68,,,8.68,meteohub,2013-07-12 01:54:00,
2013-07-11 21:59:00,71.4,68.9,29.91,WNW,294,0.0,0.0,92,9.40,,,9.40,meteohub,2013-07-12 01:59:00,
2013-07-11 22:04:00,71.4,69.3,29.91,WNW,294,0.0,0.0,93,10.88,,,10.88,meteohub,2013-07-12 02:04:00,
2013-07-11 22:09:00,71.2,69.1,29.91,WNW,294,0.0,0.0,93,12.20,,,12.20,meteohub,2013-07-12 02:09:00,
2013-07-11 22:14:00,71.2,68.7,29.91,WNW,294,0.0,0.0,92,13.04,,,13.04,meteohub,2013-07-12 02:14:00,
2013-07-11 22:19:00,71.2,68.7,29.91,WNW,294,0.0,0.0,92,13.88,,,14.48,meteohub,2013-07-12 02:19:00,
2013-07-11 22:24:00,71.2,67.8,29.91,WNW,294,0.0,0.0,89,13.28,,,15.20,meteohub,2013-07-12 02:24:00,
2013-07-11 22:30:00,71.4,68.4,29.91,WNW,294,0.0,0.0,90,13.52,,,16.52,meteohub,2013-07-12 02:30:00,
2013-07-11 22:35:00,71.6,68.9,29.91,WNW,294,0.0,0.0,91,13.36,,,18.80,meteohub,2013-07-12 02:35:00,
2013-07-11 22:40:00,71.4,68.7,29.91,WNW,294,0.0,0.0,91,13.72,,,20.24,meteohub,2013-07-12 02:40:00,
2013-07-11 22:45:00,71.4,68.7,29.91,WNW,294,0.0,0.0,91,13.96,,,21.68,meteohub,2013-07-12 02:45:00,
2013-07-11 22:51:00,71.2,68.5,29.91,WNW,294,0.0,0.0,91,12.96,,,21.88,meteohub,2013-07-12 02:51:00,
2013-07-11 22:56:00,71.1,68.4,29.91,WNW,294,0.0,0.0,91,12.47,,,22.51,meteohub,2013-07-12 02:56:00,
2013-07-11 23:01:00,70.9,68.2,29.91,WNW,294,0.0,0.0,91,12.11,,,23.35,meteohub,2013-07-12 03:01:00,
2013-07-11 23:06:00,70.7,68.0,29.91,WNW,294,0.0,0.0,91,12.35,,,24.79,meteohub,2013-07-12 03:06:00,
2013-07-11 23:11:00,70.7,67.6,29.91,WNW,294,0.0,0.0,90,12.47,,,26.11,meteohub,2013-07-12 03:11:00,
2013-07-11 23:17:00,70.7,67.3,29.91,WNW,294,0.0,0.0,89,12.11,,,26.83,meteohub,2013-07-12 03:17:00,
2013-07-11 23:22:00,70.7,67.3,29.91,WNW,294,0.0,0.0,89,12.59,,,28.39,meteohub,2013-07-12 03:22:00,
2013-07-11 23:27:00,70.5,67.5,29.91,WNW,294,0.0,0.0,90,12.71,,,29.71,meteohub,2013-07-12 03:27:00,
2013-07-11 23:32:00,70.5,67.5,29.91,WNW,294,0.0,0.0,90,12.23,,,30.43,meteohub,2013-07-12 03:32:00,
2013-07-11 23:37:00,70.3,67.3,29.91,WNW,294,0.0,0.0,90,11.75,,,31.15,meteohub,2013-07-12 03:37:00,
2013-07-11 23:42:00,70.2,67.5,29.91,WNW,294,0.0,0.0,91,11.98,,,32.58,meteohub,2013-07-12 03:42:00,
2013-07-11 23:47:00,70.0,67.5,29.91,WNW,294,0.0,0.0,92,12.46,,,34.14,meteohub,2013-07-12 03:47:00,
2013-07-11 23:53:00,69.8,67.3,29.91,WNW,294,0.0,0.0,92,13.37,,,35.57,meteohub,2013-07-12 03:53:00,
2013-07-11 23:58:00,69.6,67.5,29.91,WNW,294,0.0,0.0,93,13.42,,,36.29,meteohub,2013-07-12 03:58:00,